sensor_id;sensor_type;location;lat;lon;timestamp;P1;durP1;ratioP1;P2;durP2;ratioP2
7203;SDS011;3643;52.460;13.322;2022-11-21T04:53:00;22.43;;;12.03;;
7203;SDS011;3643;52.460;13.322;2022-11-21T04:55:29;24.20;;;12.90;;
7203;SDS011;3643;52.460;13.322;2022-11-21T04:57:58;24.50;;;13.80;;
7203;SDS011;3643;52.460;13.322;2022-11-21T05:00:27;26.00;;;13.80;;
7203;SDS011;3643;52.460;13.322;2022-11-21T05:03:00;23.97;;;13.40;;
7203;SDS011;3643;52.460;13.322;2022-11-21T05:05:29;27.27;;;14.33;;
7203;SDS011;3643;52.460;13.322;2022-11-21T05:08:00;25.47;;;13.50;;
7203;SDS011;3643;52.460;13.322;2022-11-21T05:10:29;24.50;;;13.40;;
7203;SDS011;3643;52.460;13.322;2022-11-21T05:13:17;25.47;;;12.97;;
7203;SDS011;3643;52.460;13.322;2022-11-21T05:15:47;24.13;;;13.47;;
7203;SDS011;3643;52.460;13.322;2022-11-21T05:18:17;24.63;;;12.67;;
7203;SDS011;3643;52.460;13.322;2022-11-21T05:20:46;29.83;;;15.73;;
7203;SDS011;3643;52.460;13.322;2022-11-21T05:23:16;32.83;;;16.23;;
7203;SDS011;3643;52.460;13.322;2022-11-21T05:25:45;25.50;;;14.23;;
7203;SDS011;3643;52.460;13.322;2022-11-21T05:28:13;25.77;;;14.00;;
7203;SDS011;3643;52.460;13.322;2022-11-21T05:30:42;26.70;;;13.57;;
7203;SDS011;3643;52.460;13.322;2022-11-21T05:33:10;26.63;;;13.93;;
7203;SDS011;3643;52.460;13.322;2022-11-21T05:35:39;24.57;;;13.60;;
7203;SDS011;3643;52.460;13.322;2022-11-21T05:38:09;29.33;;;14.67;;
7203;SDS011;3643;52.460;13.322;2022-11-21T05:40:39;27.23;;;14.57;;
7203;SDS011;3643;52.460;13.322;2022-11-21T05:43:09;24.93;;;14.30;;
7203;SDS011;3643;52.460;13.322;2022-11-21T05:45:56;26.67;;;14.77;;
7203;SDS011;3643;52.460;13.322;2022-11-21T05:48:24;25.80;;;14.13;;
7203;SDS011;3643;52.460;13.322;2022-11-21T05:50:53;24.70;;;14.23;;
7203;SDS011;3643;52.460;13.322;2022-11-21T05:53:21;27.77;;;14.37;;
7203;SDS011;3643;52.460;13.322;2022-11-21T05:55:51;26.53;;;14.23;;
7203;SDS011;3643;52.460;13.322;2022-11-21T05:58:21;31.10;;;14.50;;
7203;SDS011;3643;52.460;13.322;2022-11-21T06:00:54;28.90;;;14.80;;
7203;SDS011;3643;52.460;13.322;2022-11-21T06:03:25;27.50;;;15.03;;
7203;SDS011;3643;52.460;13.322;2022-11-21T06:06:00;26.97;;;13.80;;
7203;SDS011;3643;52.460;13.322;2022-11-21T06:08:31;30.77;;;14.60;;
7203;SDS011;3643;52.460;13.322;2022-11-21T06:11:02;29.73;;;16.20;;
7203;SDS011;3643;52.460;13.322;2022-11-21T06:13:32;29.73;;;16.13;;
7203;SDS011;3643;52.460;13.322;2022-11-21T06:16:02;29.70;;;16.13;;
7203;SDS011;3643;52.460;13.322;2022-11-21T06:18:32;27.03;;;14.70;;
7203;SDS011;3643;52.460;13.322;2022-11-21T06:21:02;26.43;;;13.93;;
7203;SDS011;3643;52.460;13.322;2022-11-21T06:23:33;28.30;;;14.73;;
7203;SDS011;3643;52.460;13.322;2022-11-21T06:26:07;25.77;;;14.97;;
7203;SDS011;3643;52.460;13.322;2022-11-21T06:28:38;23.57;;;13.90;;
7203;SDS011;3643;52.460;13.322;2022-11-21T06:31:08;26.60;;;14.60;;
7203;SDS011;3643;52.460;13.322;2022-11-21T06:33:38;28.20;;;15.87;;
7203;SDS011;3643;52.460;13.322;2022-11-21T06:36:08;28.67;;;15.63;;
7203;SDS011;3643;52.460;13.322;2022-11-21T06:38:38;31.73;;;16.80;;
7203;SDS011;3643;52.460;13.322;2022-11-21T06:41:10;35.37;;;16.30;;
7203;SDS011;3643;52.460;13.322;2022-11-21T06:43:39;26.17;;;14.73;;
7203;SDS011;3643;52.460;13.322;2022-11-21T06:46:08;25.67;;;14.73;;
7203;SDS011;3643;52.460;13.322;2022-11-21T06:48:39;29.30;;;16.03;;
7203;SDS011;3643;52.460;13.322;2022-11-21T06:51:10;31.03;;;15.03;;
7203;SDS011;3643;52.460;13.322;2022-11-21T06:53:44;30.57;;;17.07;;
7203;SDS011;3643;52.460;13.322;2022-11-21T06:56:15;29.80;;;16.30;;
7203;SDS011;3643;52.460;13.322;2022-11-21T06:58:44;27.30;;;15.03;;
7203;SDS011;3643;52.460;13.322;2022-11-21T07:01:12;28.17;;;15.30;;
7203;SDS011;3643;52.460;13.322;2022-11-21T07:03:41;31.33;;;15.77;;
7203;SDS011;3643;52.460;13.322;2022-11-21T07:06:10;25.57;;;14.67;;
7203;SDS011;3643;52.460;13.322;2022-11-21T07:08:38;29.17;;;15.37;;
7203;SDS011;3643;52.460;13.322;2022-11-21T07:11:08;27.27;;;14.43;;
7203;SDS011;3643;52.460;13.322;2022-11-21T07:13:55;29.27;;;16.63;;
7203;SDS011;3643;52.460;13.322;2022-11-21T07:16:23;30.73;;;15.77;;
7203;SDS011;3643;52.460;13.322;2022-11-21T07:18:56;31.67;;;16.63;;
7203;SDS011;3643;52.460;13.322;2022-11-21T07:21:25;34.90;;;17.60;;
7203;SDS011;3643;52.460;13.322;2022-11-21T07:23:54;31.13;;;16.53;;
7203;SDS011;3643;52.460;13.322;2022-11-21T07:26:23;29.33;;;15.60;;
7203;SDS011;3643;52.460;13.322;2022-11-21T07:28:51;28.17;;;15.13;;
7203;SDS011;3643;52.460;13.322;2022-11-21T07:31:21;32.07;;;17.10;;
7203;SDS011;3643;52.460;13.322;2022-11-21T07:33:50;28.13;;;15.73;;
7203;SDS011;3643;52.460;13.322;2022-11-21T07:36:21;31.80;;;17.03;;
7203;SDS011;3643;52.460;13.322;2022-11-21T07:38:50;34.23;;;18.03;;
7203;SDS011;3643;52.460;13.322;2022-11-21T07:41:19;31.60;;;17.03;;
7203;SDS011;3643;52.460;13.322;2022-11-21T07:43:48;30.07;;;15.93;;
7203;SDS011;3643;52.460;13.322;2022-11-21T07:46:16;33.63;;;17.43;;
7203;SDS011;3643;52.460;13.322;2022-11-21T07:48:46;32.67;;;17.77;;
7203;SDS011;3643;52.460;13.322;2022-11-21T07:51:15;29.67;;;16.50;;
7203;SDS011;3643;52.460;13.322;2022-11-21T07:53:44;35.33;;;17.47;;
7203;SDS011;3643;52.460;13.322;2022-11-21T07:56:12;37.50;;;19.03;;
7203;SDS011;3643;52.460;13.322;2022-11-21T07:58:43;34.73;;;17.90;;
7203;SDS011;3643;52.460;13.322;2022-11-21T08:01:11;35.60;;;18.37;;
7203;SDS011;3643;52.460;13.322;2022-11-21T08:03:40;35.13;;;19.73;;
7203;SDS011;3643;52.460;13.322;2022-11-21T08:06:11;36.47;;;19.13;;
7203;SDS011;3643;52.460;13.322;2022-11-21T08:08:40;39.13;;;20.33;;
7203;SDS011;3643;52.460;13.322;2022-11-21T08:11:09;36.10;;;18.80;;
7203;SDS011;3643;52.460;13.322;2022-11-21T08:13:38;39.63;;;19.37;;
7203;SDS011;3643;52.460;13.322;2022-11-21T08:16:06;39.73;;;19.27;;
7203;SDS011;3643;52.460;13.322;2022-11-21T08:18:35;38.43;;;20.37;;
7203;SDS011;3643;52.460;13.322;2022-11-21T08:21:03;37.27;;;18.30;;
7203;SDS011;3643;52.460;13.322;2022-11-21T08:23:34;50.30;;;26.77;;
7203;SDS011;3643;52.460;13.322;2022-11-21T08:26:02;52.33;;;27.13;;
7203;SDS011;3643;52.460;13.322;2022-11-21T08:28:30;42.50;;;22.33;;
7203;SDS011;3643;52.460;13.322;2022-11-21T08:31:01;36.70;;;17.37;;
7203;SDS011;3643;52.460;13.322;2022-11-21T08:33:30;29.47;;;16.40;;
7203;SDS011;3643;52.460;13.322;2022-11-21T08:36:02;35.00;;;17.13;;
7203;SDS011;3643;52.460;13.322;2022-11-21T08:38:31;33.30;;;17.10;;
7203;SDS011;3643;52.460;13.322;2022-11-21T08:41:01;31.27;;;16.40;;
7203;SDS011;3643;52.460;13.322;2022-11-21T08:43:47;28.80;;;15.40;;
7203;SDS011;3643;52.460;13.322;2022-11-21T08:46:17;27.47;;;15.30;;
7203;SDS011;3643;52.460;13.322;2022-11-21T08:48:45;32.33;;;15.97;;
7203;SDS011;3643;52.460;13.322;2022-11-21T08:51:13;33.23;;;17.07;;
7203;SDS011;3643;52.460;13.322;2022-11-21T08:53:43;28.67;;;15.20;;
7203;SDS011;3643;52.460;13.322;2022-11-21T08:56:14;30.07;;;15.77;;
7203;SDS011;3643;52.460;13.322;2022-11-21T08:58:42;30.07;;;15.93;;
7203;SDS011;3643;52.460;13.322;2022-11-21T09:01:11;42.00;;;17.03;;
7203;SDS011;3643;52.460;13.322;2022-11-21T09:03:40;30.43;;;14.90;;
7203;SDS011;3643;52.460;13.322;2022-11-21T09:06:08;28.40;;;14.23;;
7203;SDS011;3643;52.460;13.322;2022-11-21T09:08:37;28.97;;;14.03;;
7203;SDS011;3643;52.460;13.322;2022-11-21T09:11:06;28.37;;;14.17;;
7203;SDS011;3643;52.460;13.322;2022-11-21T09:13:38;25.23;;;13.20;;
7203;SDS011;3643;52.460;13.322;2022-11-21T09:16:09;29.13;;;13.80;;
7203;SDS011;3643;52.460;13.322;2022-11-21T09:18:55;29.70;;;15.27;;
7203;SDS011;3643;52.460;13.322;2022-11-21T09:21:24;27.07;;;13.70;;
7203;SDS011;3643;52.460;13.322;2022-11-21T09:23:53;32.50;;;13.47;;
7203;SDS011;3643;52.460;13.322;2022-11-21T09:26:21;24.87;;;13.37;;
7203;SDS011;3643;52.460;13.322;2022-11-21T09:28:51;25.13;;;13.10;;
7203;SDS011;3643;52.460;13.322;2022-11-21T09:31:19;20.70;;;11.40;;
7203;SDS011;3643;52.460;13.322;2022-11-21T09:33:48;22.20;;;11.37;;
7203;SDS011;3643;52.460;13.322;2022-11-21T09:36:20;19.53;;;10.57;;
7203;SDS011;3643;52.460;13.322;2022-11-21T09:38:50;24.20;;;12.03;;
7203;SDS011;3643;52.460;13.322;2022-11-21T09:41:22;21.43;;;11.30;;
7203;SDS011;3643;52.460;13.322;2022-11-21T09:44:14;20.83;;;11.10;;
7203;SDS011;3643;52.460;13.322;2022-11-21T09:46:49;21.27;;;10.43;;
7203;SDS011;3643;52.460;13.322;2022-11-21T09:49:26;17.13;;;9.70;;
7203;SDS011;3643;52.460;13.322;2022-11-21T09:51:56;18.83;;;9.77;;
7203;SDS011;3643;52.460;13.322;2022-11-21T09:54:28;19.80;;;10.57;;
7203;SDS011;3643;52.460;13.322;2022-11-21T09:57:00;16.40;;;9.83;;
7203;SDS011;3643;52.460;13.322;2022-11-21T09:59:31;19.60;;;10.80;;
7203;SDS011;3643;52.460;13.322;2022-11-21T10:02:01;15.90;;;9.13;;
7203;SDS011;3643;52.460;13.322;2022-11-21T10:04:37;21.17;;;9.73;;
7203;SDS011;3643;52.460;13.322;2022-11-21T10:07:07;16.30;;;9.43;;
7203;SDS011;3643;52.460;13.322;2022-11-21T10:09:45;17.97;;;10.00;;
7203;SDS011;3643;52.460;13.322;2022-11-21T10:12:26;17.77;;;10.37;;
7203;SDS011;3643;52.460;13.322;2022-11-21T10:15:13;18.00;;;9.20;;
7203;SDS011;3643;52.460;13.322;2022-11-21T10:18:04;17.13;;;9.47;;
7203;SDS011;3643;52.460;13.322;2022-11-21T10:20:53;19.20;;;10.17;;
7203;SDS011;3643;52.460;13.322;2022-11-21T10:23:38;17.27;;;9.20;;
7203;SDS011;3643;52.460;13.322;2022-11-21T10:26:26;19.43;;;9.53;;
7203;SDS011;3643;52.460;13.322;2022-11-21T10:29:03;18.57;;;10.30;;
7203;SDS011;3643;52.460;13.322;2022-11-21T10:31:39;17.53;;;10.10;;
7203;SDS011;3643;52.460;13.322;2022-11-21T10:34:10;14.17;;;7.70;;
7203;SDS011;3643;52.460;13.322;2022-11-21T10:36:43;15.00;;;8.50;;
7203;SDS011;3643;52.460;13.322;2022-11-21T10:39:17;15.10;;;8.30;;
7203;SDS011;3643;52.460;13.322;2022-11-21T10:41:49;17.30;;;9.57;;
7203;SDS011;3643;52.460;13.322;2022-11-21T10:44:22;14.20;;;8.30;;
7203;SDS011;3643;52.460;13.322;2022-11-21T10:47:16;14.50;;;8.30;;
7203;SDS011;3643;52.460;13.322;2022-11-21T10:50:04;14.20;;;8.10;;
7203;SDS011;3643;52.460;13.322;2022-11-21T10:52:41;12.03;;;7.13;;
7203;SDS011;3643;52.460;13.322;2022-11-21T10:55:14;13.57;;;7.57;;
7203;SDS011;3643;52.460;13.322;2022-11-21T10:57:45;13.53;;;7.87;;
7203;SDS011;3643;52.460;13.322;2022-11-21T11:00:18;13.27;;;7.67;;
7203;SDS011;3643;52.460;13.322;2022-11-21T11:03:03;12.87;;;7.47;;
7203;SDS011;3643;52.460;13.322;2022-11-21T11:05:34;15.77;;;7.73;;
7203;SDS011;3643;52.460;13.322;2022-11-21T11:08:06;12.90;;;7.20;;
7203;SDS011;3643;52.460;13.322;2022-11-21T11:10:36;13.43;;;6.93;;
7203;SDS011;3643;52.460;13.322;2022-11-21T11:13:12;13.83;;;7.50;;
7203;SDS011;3643;52.460;13.322;2022-11-21T11:16:17;11.87;;;7.67;;
7203;SDS011;3643;52.460;13.322;2022-11-21T11:18:53;11.40;;;7.20;;
7203;SDS011;3643;52.460;13.322;2022-11-21T11:21:26;13.60;;;7.43;;
7203;SDS011;3643;52.460;13.322;2022-11-21T11:24:05;13.13;;;7.80;;
7203;SDS011;3643;52.460;13.322;2022-11-21T11:26:50;13.00;;;7.33;;
7203;SDS011;3643;52.460;13.322;2022-11-21T11:29:23;10.40;;;6.33;;
7203;SDS011;3643;52.460;13.322;2022-11-21T11:31:54;12.37;;;7.07;;
7203;SDS011;3643;52.460;13.322;2022-11-21T11:34:26;13.97;;;8.20;;
7203;SDS011;3643;52.460;13.322;2022-11-21T11:37:11;14.20;;;8.43;;
7203;SDS011;3643;52.460;13.322;2022-11-21T11:39:49;14.50;;;8.57;;
7203;SDS011;3643;52.460;13.322;2022-11-21T11:42:34;15.47;;;8.13;;
7203;SDS011;3643;52.460;13.322;2022-11-21T11:45:40;15.73;;;8.70;;
7203;SDS011;3643;52.460;13.322;2022-11-21T11:48:37;16.27;;;9.10;;
7203;SDS011;3643;52.460;13.322;2022-11-21T11:51:27;16.03;;;8.90;;
7203;SDS011;3643;52.460;13.322;2022-11-21T11:54:06;15.97;;;8.83;;
7203;SDS011;3643;52.460;13.322;2022-11-21T11:56:41;15.87;;;8.83;;
7203;SDS011;3643;52.460;13.322;2022-11-21T11:59:12;16.90;;;9.50;;
7203;SDS011;3643;52.460;13.322;2022-11-21T12:01:48;15.00;;;8.73;;
7203;SDS011;3643;52.460;13.322;2022-11-21T12:04:21;16.90;;;9.37;;
7203;SDS011;3643;52.460;13.322;2022-11-21T12:06:54;16.30;;;8.93;;
7203;SDS011;3643;52.460;13.322;2022-11-21T12:09:49;14.23;;;8.53;;
7203;SDS011;3643;52.460;13.322;2022-11-21T12:12:27;17.23;;;9.40;;
7203;SDS011;3643;52.460;13.322;2022-11-21T12:15:02;14.47;;;8.47;;
7203;SDS011;3643;52.460;13.322;2022-11-21T12:17:59;14.57;;;9.03;;
7203;SDS011;3643;52.460;13.322;2022-11-21T12:20:41;15.70;;;9.03;;
7203;SDS011;3643;52.460;13.322;2022-11-21T12:23:19;14.10;;;8.70;;
7203;SDS011;3643;52.460;13.322;2022-11-21T12:25:52;20.13;;;10.83;;
7203;SDS011;3643;52.460;13.322;2022-11-21T12:28:33;16.17;;;9.27;;
7203;SDS011;3643;52.460;13.322;2022-11-21T12:31:13;18.20;;;9.43;;
7203;SDS011;3643;52.460;13.322;2022-11-21T12:33:46;19.87;;;9.73;;
7203;SDS011;3643;52.460;13.322;2022-11-21T12:36:29;16.37;;;9.67;;
7203;SDS011;3643;52.460;13.322;2022-11-21T12:39:07;20.93;;;10.13;;
7203;SDS011;3643;52.460;13.322;2022-11-21T12:41:59;16.43;;;9.90;;
7203;SDS011;3643;52.460;13.322;2022-11-21T12:44:58;17.30;;;9.20;;
7203;SDS011;3643;52.460;13.322;2022-11-21T12:47:41;18.17;;;10.37;;
7203;SDS011;3643;52.460;13.322;2022-11-21T12:50:49;21.03;;;11.23;;
7203;SDS011;3643;52.460;13.322;2022-11-21T12:53:45;20.00;;;10.30;;
7203;SDS011;3643;52.460;13.322;2022-11-21T12:56:40;17.13;;;9.33;;
7203;SDS011;3643;52.460;13.322;2022-11-21T12:59:15;21.80;;;11.70;;
7203;SDS011;3643;52.460;13.322;2022-11-21T13:01:45;24.27;;;12.07;;
7203;SDS011;3643;52.460;13.322;2022-11-21T13:04:28;18.93;;;11.10;;
7203;SDS011;3643;52.460;13.322;2022-11-21T13:07:00;20.17;;;11.07;;
7203;SDS011;3643;52.460;13.322;2022-11-21T13:09:32;18.17;;;10.47;;
7203;SDS011;3643;52.460;13.322;2022-11-21T13:12:09;19.80;;;11.23;;
7203;SDS011;3643;52.460;13.322;2022-11-21T13:14:43;21.27;;;11.73;;
7203;SDS011;3643;52.460;13.322;2022-11-21T13:17:21;17.97;;;10.37;;
7203;SDS011;3643;52.460;13.322;2022-11-21T13:19:56;20.37;;;10.73;;
7203;SDS011;3643;52.460;13.322;2022-11-21T13:28:26;18.77;;;10.37;;
7203;SDS011;3643;52.460;13.322;2022-11-21T13:30:58;19.07;;;11.27;;
7203;SDS011;3643;52.460;13.322;2022-11-21T13:33:47;18.53;;;10.57;;
7203;SDS011;3643;52.460;13.322;2022-11-21T13:36:33;19.97;;;11.90;;
7203;SDS011;3643;52.460;13.322;2022-11-21T13:42:03;18.93;;;11.70;;
7203;SDS011;3643;52.460;13.322;2022-11-21T13:44:52;19.53;;;11.97;;
7203;SDS011;3643;52.460;13.322;2022-11-21T13:47:46;15.20;;;9.97;;
7203;SDS011;3643;52.460;13.322;2022-11-21T13:53:35;19.90;;;10.87;;
7203;SDS011;3643;52.460;13.322;2022-11-21T13:56:25;20.47;;;11.70;;
7203;SDS011;3643;52.460;13.322;2022-11-21T13:59:17;19.23;;;11.13;;
7203;SDS011;3643;52.460;13.322;2022-11-21T14:02:13;18.97;;;11.87;;
7203;SDS011;3643;52.460;13.322;2022-11-21T14:05:14;19.03;;;11.90;;
7203;SDS011;3643;52.460;13.322;2022-11-21T14:07:51;17.27;;;11.10;;
7203;SDS011;3643;52.460;13.322;2022-11-21T14:10:28;18.40;;;10.70;;
7203;SDS011;3643;52.460;13.322;2022-11-21T14:13:00;17.60;;;10.37;;
7203;SDS011;3643;52.460;13.322;2022-11-21T14:15:31;16.73;;;9.93;;
7203;SDS011;3643;52.460;13.322;2022-11-21T14:18:12;18.57;;;10.50;;
7203;SDS011;3643;52.460;13.322;2022-11-21T14:20:48;14.83;;;9.93;;
7203;SDS011;3643;52.460;13.322;2022-11-21T14:23:23;18.80;;;11.63;;
7203;SDS011;3643;52.460;13.322;2022-11-21T14:25:54;19.87;;;11.87;;
7203;SDS011;3643;52.460;13.322;2022-11-21T14:28:26;18.97;;;11.50;;
7203;SDS011;3643;52.460;13.322;2022-11-21T14:30:56;17.50;;;11.03;;
7203;SDS011;3643;52.460;13.322;2022-11-21T14:33:30;17.93;;;10.73;;
7203;SDS011;3643;52.460;13.322;2022-11-21T14:36:04;17.27;;;10.13;;
7203;SDS011;3643;52.460;13.322;2022-11-21T14:38:39;16.33;;;10.30;;
7203;SDS011;3643;52.460;13.322;2022-11-21T14:44:04;19.17;;;11.27;;
7203;SDS011;3643;52.460;13.322;2022-11-21T14:46:41;17.93;;;11.60;;
7203;SDS011;3643;52.460;13.322;2022-11-21T14:49:24;17.17;;;11.07;;
7203;SDS011;3643;52.460;13.322;2022-11-21T14:52:05;17.50;;;10.33;;
7203;SDS011;3643;52.460;13.322;2022-11-21T14:54:47;19.63;;;12.53;;
7203;SDS011;3643;52.460;13.322;2022-11-21T14:57:39;22.20;;;13.40;;
7203;SDS011;3643;52.460;13.322;2022-11-21T15:00:10;21.10;;;12.67;;
7203;SDS011;3643;52.460;13.322;2022-11-21T15:03:14;21.13;;;12.17;;
7203;SDS011;3643;52.460;13.322;2022-11-21T15:05:47;22.77;;;13.67;;
7203;SDS011;3643;52.460;13.322;2022-11-21T15:08:38;19.23;;;11.87;;
7203;SDS011;3643;52.460;13.322;2022-11-21T15:11:32;17.60;;;10.33;;
7203;SDS011;3643;52.460;13.322;2022-11-21T15:14:11;23.53;;;13.67;;
7203;SDS011;3643;52.460;13.322;2022-11-21T15:16:51;23.73;;;14.27;;
7203;SDS011;3643;52.460;13.322;2022-11-21T15:19:22;19.90;;;13.43;;
7203;SDS011;3643;52.460;13.322;2022-11-21T15:21:56;27.33;;;15.80;;
7203;SDS011;3643;52.460;13.322;2022-11-21T15:24:30;27.27;;;15.33;;
7203;SDS011;3643;52.460;13.322;2022-11-21T15:30:01;24.73;;;14.47;;
7203;SDS011;3643;52.460;13.322;2022-11-21T15:32:58;22.10;;;13.27;;
7203;SDS011;3643;52.460;13.322;2022-11-21T15:35:34;24.23;;;14.93;;
7203;SDS011;3643;52.460;13.322;2022-11-21T15:38:21;20.87;;;13.10;;
7203;SDS011;3643;52.460;13.322;2022-11-21T15:40:55;21.43;;;12.90;;
7203;SDS011;3643;52.460;13.322;2022-11-21T15:43:35;23.03;;;13.80;;
7203;SDS011;3643;52.460;13.322;2022-11-21T15:46:13;24.80;;;14.13;;
7203;SDS011;3643;52.460;13.322;2022-11-21T15:48:44;19.00;;;11.70;;
7203;SDS011;3643;52.460;13.322;2022-11-21T15:51:14;18.63;;;11.73;;
7203;SDS011;3643;52.460;13.322;2022-11-21T15:54:06;17.53;;;11.43;;
7203;SDS011;3643;52.460;13.322;2022-11-21T15:56:36;18.77;;;11.30;;
7203;SDS011;3643;52.460;13.322;2022-11-21T15:59:06;22.53;;;13.50;;
7203;SDS011;3643;52.460;13.322;2022-11-21T16:01:35;25.97;;;14.57;;
7203;SDS011;3643;52.460;13.322;2022-11-21T16:04:05;25.27;;;14.33;;
7203;SDS011;3643;52.460;13.322;2022-11-21T16:06:35;23.87;;;14.27;;
7203;SDS011;3643;52.460;13.322;2022-11-21T16:09:06;21.67;;;12.93;;
7203;SDS011;3643;52.460;13.322;2022-11-21T16:11:35;23.77;;;14.13;;
7203;SDS011;3643;52.460;13.322;2022-11-21T16:14:06;22.87;;;12.70;;
7203;SDS011;3643;52.460;13.322;2022-11-21T16:16:36;20.40;;;12.83;;
7203;SDS011;3643;52.460;13.322;2022-11-21T16:19:09;22.33;;;13.77;;
7203;SDS011;3643;52.460;13.322;2022-11-21T16:21:39;23.33;;;13.47;;
7203;SDS011;3643;52.460;13.322;2022-11-21T16:24:10;24.60;;;13.97;;
7203;SDS011;3643;52.460;13.322;2022-11-21T16:26:38;22.40;;;12.30;;
7203;SDS011;3643;52.460;13.322;2022-11-21T16:29:08;24.03;;;13.87;;
7203;SDS011;3643;52.460;13.322;2022-11-21T16:31:38;24.17;;;13.20;;
7203;SDS011;3643;52.460;13.322;2022-11-21T16:34:06;20.93;;;13.03;;
7203;SDS011;3643;52.460;13.322;2022-11-21T16:36:35;23.27;;;13.37;;
7203;SDS011;3643;52.460;13.322;2022-11-21T16:39:04;24.03;;;12.90;;
7203;SDS011;3643;52.460;13.322;2022-11-21T16:41:42;20.87;;;12.57;;
7203;SDS011;3643;52.460;13.322;2022-11-21T16:44:12;22.40;;;13.50;;
7203;SDS011;3643;52.460;13.322;2022-11-21T16:46:43;26.83;;;16.00;;
7203;SDS011;3643;52.460;13.322;2022-11-21T16:49:14;24.50;;;14.70;;
7203;SDS011;3643;52.460;13.322;2022-11-21T16:51:44;26.13;;;15.73;;
7203;SDS011;3643;52.460;13.322;2022-11-21T16:54:14;24.40;;;14.80;;
7203;SDS011;3643;52.460;13.322;2022-11-21T16:56:44;25.80;;;14.97;;
7203;SDS011;3643;52.460;13.322;2022-11-21T16:59:12;28.27;;;15.37;;
7203;SDS011;3643;52.460;13.322;2022-11-21T17:01:41;41.10;;;23.00;;
7203;SDS011;3643;52.460;13.322;2022-11-21T17:04:10;31.40;;;17.07;;
7203;SDS011;3643;52.460;13.322;2022-11-21T17:06:44;34.33;;;16.43;;
7203;SDS011;3643;52.460;13.322;2022-11-21T17:09:14;28.60;;;16.30;;
7203;SDS011;3643;52.460;13.322;2022-11-21T17:11:46;28.93;;;16.70;;
7203;SDS011;3643;52.460;13.322;2022-11-21T17:14:15;50.67;;;25.57;;
7203;SDS011;3643;52.460;13.322;2022-11-21T17:16:44;35.17;;;17.80;;
7203;SDS011;3643;52.460;13.322;2022-11-21T17:19:14;30.07;;;16.73;;
7203;SDS011;3643;52.460;13.322;2022-11-21T17:21:43;33.17;;;18.13;;
7203;SDS011;3643;52.460;13.322;2022-11-21T17:24:12;40.97;;;18.00;;
7203;SDS011;3643;52.460;13.322;2022-11-21T17:26:41;34.53;;;18.33;;
7203;SDS011;3643;52.460;13.322;2022-11-21T17:29:11;33.47;;;17.90;;
7203;SDS011;3643;52.460;13.322;2022-11-21T17:31:39;33.77;;;17.03;;
7203;SDS011;3643;52.460;13.322;2022-11-21T17:34:08;31.33;;;17.17;;
7203;SDS011;3643;52.460;13.322;2022-11-21T17:36:37;29.23;;;16.03;;
7203;SDS011;3643;52.460;13.322;2022-11-21T17:39:06;29.97;;;16.47;;
7203;SDS011;3643;52.460;13.322;2022-11-21T17:41:35;32.10;;;17.20;;
7203;SDS011;3643;52.460;13.322;2022-11-21T17:44:05;35.20;;;18.17;;
7203;SDS011;3643;52.460;13.322;2022-11-21T17:46:35;35.83;;;18.50;;
7203;SDS011;3643;52.460;13.322;2022-11-21T17:49:03;33.50;;;18.20;;
7203;SDS011;3643;52.460;13.322;2022-11-21T17:51:32;29.83;;;16.60;;
7203;SDS011;3643;52.460;13.322;2022-11-21T17:54:03;34.90;;;18.87;;
7203;SDS011;3643;52.460;13.322;2022-11-21T17:56:34;36.83;;;18.97;;
7203;SDS011;3643;52.460;13.322;2022-11-21T17:59:12;34.63;;;17.73;;
7203;SDS011;3643;52.460;13.322;2022-11-21T18:01:42;35.50;;;19.00;;
7203;SDS011;3643;52.460;13.322;2022-11-21T18:04:11;33.60;;;17.73;;
7203;SDS011;3643;52.460;13.322;2022-11-21T18:06:43;31.23;;;16.33;;
7203;SDS011;3643;52.460;13.322;2022-11-21T18:09:12;36.53;;;20.10;;
7203;SDS011;3643;52.460;13.322;2022-11-21T18:11:42;32.87;;;18.30;;
7203;SDS011;3643;52.460;13.322;2022-11-21T18:14:12;37.07;;;16.70;;
7203;SDS011;3643;52.460;13.322;2022-11-21T18:16:42;32.60;;;17.13;;
7203;SDS011;3643;52.460;13.322;2022-11-21T18:19:18;31.77;;;17.43;;
7203;SDS011;3643;52.460;13.322;2022-11-21T18:21:47;34.93;;;17.87;;
7203;SDS011;3643;52.460;13.322;2022-11-21T18:24:17;30.50;;;17.60;;
7203;SDS011;3643;52.460;13.322;2022-11-21T18:26:45;33.57;;;18.20;;
7203;SDS011;3643;52.460;13.322;2022-11-21T18:29:14;34.37;;;18.10;;
7203;SDS011;3643;52.460;13.322;2022-11-21T18:32:05;32.20;;;18.47;;
7203;SDS011;3643;52.460;13.322;2022-11-21T18:34:34;36.47;;;18.50;;
7203;SDS011;3643;52.460;13.322;2022-11-21T18:37:02;36.60;;;18.20;;
7203;SDS011;3643;52.460;13.322;2022-11-21T18:39:31;31.90;;;18.07;;
7203;SDS011;3643;52.460;13.322;2022-11-21T18:42:00;35.53;;;18.77;;
7203;SDS011;3643;52.460;13.322;2022-11-21T18:44:28;30.37;;;17.87;;
7203;SDS011;3643;52.460;13.322;2022-11-21T18:46:57;32.50;;;18.10;;
7203;SDS011;3643;52.460;13.322;2022-11-21T18:49:27;33.83;;;18.97;;
7203;SDS011;3643;52.460;13.322;2022-11-21T18:51:56;33.67;;;18.27;;
7203;SDS011;3643;52.460;13.322;2022-11-21T18:54:25;33.57;;;18.07;;
7203;SDS011;3643;52.460;13.322;2022-11-21T18:56:53;31.20;;;16.57;;
7203;SDS011;3643;52.460;13.322;2022-11-21T18:59:23;31.63;;;17.17;;
7203;SDS011;3643;52.460;13.322;2022-11-21T19:01:52;31.83;;;17.10;;
7203;SDS011;3643;52.460;13.322;2022-11-21T19:04:21;33.00;;;18.20;;
7203;SDS011;3643;52.460;13.322;2022-11-21T19:06:52;30.97;;;17.23;;
7203;SDS011;3643;52.460;13.322;2022-11-21T19:09:21;29.53;;;16.57;;
7203;SDS011;3643;52.460;13.322;2022-11-21T19:12:02;32.90;;;17.07;;
7203;SDS011;3643;52.460;13.322;2022-11-21T19:14:31;35.60;;;17.73;;
7203;SDS011;3643;52.460;13.322;2022-11-21T19:17:00;30.67;;;17.60;;
7203;SDS011;3643;52.460;13.322;2022-11-21T19:19:28;35.07;;;18.37;;
7203;SDS011;3643;52.460;13.322;2022-11-21T19:22:02;33.73;;;16.70;;
7203;SDS011;3643;52.460;13.322;2022-11-21T19:24:32;34.80;;;18.53;;
7203;SDS011;3643;52.460;13.322;2022-11-21T19:27:00;32.90;;;18.13;;
7203;SDS011;3643;52.460;13.322;2022-11-21T19:29:30;31.30;;;18.47;;
7203;SDS011;3643;52.460;13.322;2022-11-21T19:31:59;29.50;;;16.00;;
7203;SDS011;3643;52.460;13.322;2022-11-21T19:34:28;26.90;;;16.13;;
7203;SDS011;3643;52.460;13.322;2022-11-21T19:36:57;28.47;;;16.60;;
7203;SDS011;3643;52.460;13.322;2022-11-21T19:39:27;27.07;;;16.33;;
7203;SDS011;3643;52.460;13.322;2022-11-21T19:42:03;29.03;;;16.83;;
7203;SDS011;3643;52.460;13.322;2022-11-21T19:44:32;29.87;;;16.37;;
7203;SDS011;3643;52.460;13.322;2022-11-21T19:47:01;31.87;;;16.40;;
7203;SDS011;3643;52.460;13.322;2022-11-21T19:49:29;29.10;;;16.97;;
7203;SDS011;3643;52.460;13.322;2022-11-21T19:51:58;25.70;;;14.73;;
7203;SDS011;3643;52.460;13.322;2022-11-21T19:54:29;24.80;;;15.00;;
7203;SDS011;3643;52.460;13.322;2022-11-21T19:57:01;27.33;;;15.87;;
7203;SDS011;3643;52.460;13.322;2022-11-21T19:59:39;26.90;;;15.53;;
7203;SDS011;3643;52.460;13.322;2022-11-21T20:02:15;26.10;;;15.10;;
7203;SDS011;3643;52.460;13.322;2022-11-21T20:04:47;24.33;;;15.07;;
7203;SDS011;3643;52.460;13.322;2022-11-21T20:07:16;24.30;;;14.87;;
7203;SDS011;3643;52.460;13.322;2022-11-21T20:09:46;26.60;;;15.23;;
7203;SDS011;3643;52.460;13.322;2022-11-21T20:12:14;24.53;;;14.50;;
7203;SDS011;3643;52.460;13.322;2022-11-21T20:14:45;24.80;;;14.73;;
7203;SDS011;3643;52.460;13.322;2022-11-21T20:17:13;22.13;;;13.10;;
7203;SDS011;3643;52.460;13.322;2022-11-21T20:19:42;25.47;;;14.20;;
7203;SDS011;3643;52.460;13.322;2022-11-21T20:22:16;23.90;;;13.50;;
7203;SDS011;3643;52.460;13.322;2022-11-21T20:24:47;20.80;;;12.33;;